sensor_id;sensor_type;location;lat;lon;timestamp;P1;durP1;ratioP1;P2;durP2;ratioP2
77040;SDS011;65974;42.664;23.264;2023-12-22T00:01:30;40.28;;;20.65;;
77040;SDS011;65974;42.664;23.264;2023-12-22T00:03:56;57.28;;;23.98;;
77040;SDS011;65974;42.664;23.264;2023-12-22T00:06:21;41.30;;;17.38;;
77040;SDS011;65974;42.664;23.264;2023-12-22T00:08:47;51.60;;;25.52;;
77040;SDS011;65974;42.664;23.264;2023-12-22T00:11:12;39.55;;;20.13;;
77040;SDS011;65974;42.664;23.264;2023-12-22T00:13:38;48.55;;;21.40;;
77040;SDS011;65974;42.664;23.264;2023-12-22T00:16:05;39.67;;;21.23;;
77040;SDS011;65974;42.664;23.264;2023-12-22T00:18:31;27.70;;;14.48;;
77040;SDS011;65974;42.664;23.264;2023-12-22T00:20:56;34.08;;;19.70;;
77040;SDS011;65974;42.664;23.264;2023-12-22T00:23:23;54.10;;;22.45;;
77040;SDS011;65974;42.664;23.264;2023-12-22T00:25:49;24.52;;;15.68;;
77040;SDS011;65974;42.664;23.264;2023-12-22T00:28:15;38.15;;;16.35;;
77040;SDS011;65974;42.664;23.264;2023-12-22T00:30:41;24.50;;;12.18;;
77040;SDS011;65974;42.664;23.264;2023-12-22T00:33:06;26.55;;;14.43;;
77040;SDS011;65974;42.664;23.264;2023-12-22T00:35:32;34.55;;;18.33;;
77040;SDS011;65974;42.664;23.264;2023-12-22T00:37:58;31.20;;;15.00;;
77040;SDS011;65974;42.664;23.264;2023-12-22T00:40:23;36.70;;;13.73;;
77040;SDS011;65974;42.664;23.264;2023-12-22T00:42:49;32.63;;;18.63;;
77040;SDS011;65974;42.664;23.264;2023-12-22T00:45:14;41.05;;;20.48;;
77040;SDS011;65974;42.664;23.264;2023-12-22T00:47:41;29.63;;;15.60;;
77040;SDS011;65974;42.664;23.264;2023-12-22T00:50:06;35.53;;;15.98;;
77040;SDS011;65974;42.664;23.264;2023-12-22T00:52:33;38.33;;;19.13;;
77040;SDS011;65974;42.664;23.264;2023-12-22T00:54:58;41.00;;;16.13;;
77040;SDS011;65974;42.664;23.264;2023-12-22T00:57:24;33.60;;;13.57;;
77040;SDS011;65974;42.664;23.264;2023-12-22T00:59:52;30.20;;;15.52;;
77040;SDS011;65974;42.664;23.264;2023-12-22T01:02:17;23.95;;;12.82;;
77040;SDS011;65974;42.664;23.264;2023-12-22T01:04:43;37.42;;;17.48;;
77040;SDS011;65974;42.664;23.264;2023-12-22T01:07:12;37.85;;;16.17;;
77040;SDS011;65974;42.664;23.264;2023-12-22T01:09:39;27.42;;;15.13;;
77040;SDS011;65974;42.664;23.264;2023-12-22T01:12:04;38.45;;;16.08;;
77040;SDS011;65974;42.664;23.264;2023-12-22T01:14:31;31.08;;;14.57;;
77040;SDS011;65974;42.664;23.264;2023-12-22T01:16:58;28.42;;;16.00;;
77040;SDS011;65974;42.664;23.264;2023-12-22T01:19:26;23.08;;;10.38;;
77040;SDS011;65974;42.664;23.264;2023-12-22T01:21:52;35.45;;;14.05;;
77040;SDS011;65974;42.664;23.264;2023-12-22T01:24:18;23.60;;;15.25;;
77040;SDS011;65974;42.664;23.264;2023-12-22T01:26:44;37.42;;;16.88;;
77040;SDS011;65974;42.664;23.264;2023-12-22T01:29:09;18.90;;;12.75;;
77040;SDS011;65974;42.664;23.264;2023-12-22T01:31:35;40.28;;;17.88;;
77040;SDS011;65974;42.664;23.264;2023-12-22T01:34:00;18.88;;;10.07;;
77040;SDS011;65974;42.664;23.264;2023-12-22T01:36:26;28.15;;;12.27;;
77040;SDS011;65974;42.664;23.264;2023-12-22T01:38:51;23.52;;;10.88;;
77040;SDS011;65974;42.664;23.264;2023-12-22T01:41:18;35.25;;;14.02;;
77040;SDS011;65974;42.664;23.264;2023-12-22T01:43:44;35.47;;;15.77;;
77040;SDS011;65974;42.664;23.264;2023-12-22T01:46:09;13.05;;;10.50;;
77040;SDS011;65974;42.664;23.264;2023-12-22T01:48:38;33.88;;;14.60;;
77040;SDS011;65974;42.664;23.264;2023-12-22T01:51:05;31.27;;;13.05;;
77040;SDS011;65974;42.664;23.264;2023-12-22T01:53:32;29.80;;;16.58;;
77040;SDS011;65974;42.664;23.264;2023-12-22T01:55:59;32.33;;;12.63;;
77040;SDS011;65974;42.664;23.264;2023-12-22T01:58:27;26.42;;;12.60;;
77040;SDS011;65974;42.664;23.264;2023-12-22T02:03:31;31.35;;;15.73;;
77040;SDS011;65974;42.664;23.264;2023-12-22T02:05:56;17.83;;;11.30;;
77040;SDS011;65974;42.664;23.264;2023-12-22T02:08:22;37.72;;;16.52;;
77040;SDS011;65974;42.664;23.264;2023-12-22T02:10:51;24.60;;;12.95;;
77040;SDS011;65974;42.664;23.264;2023-12-22T02:13:17;30.73;;;16.85;;
77040;SDS011;65974;42.664;23.264;2023-12-22T02:15:43;42.42;;;17.33;;
77040;SDS011;65974;42.664;23.264;2023-12-22T02:18:16;25.98;;;12.35;;
77040;SDS011;65974;42.664;23.264;2023-12-22T02:20:45;29.42;;;14.27;;
77040;SDS011;65974;42.664;23.264;2023-12-22T02:23:10;30.20;;;14.40;;
77040;SDS011;65974;42.664;23.264;2023-12-22T02:25:36;36.47;;;15.85;;
77040;SDS011;65974;42.664;23.264;2023-12-22T02:28:05;42.92;;;14.60;;
77040;SDS011;65974;42.664;23.264;2023-12-22T02:30:37;30.88;;;16.95;;
77040;SDS011;65974;42.664;23.264;2023-12-22T02:33:08;36.83;;;9.93;;
77040;SDS011;65974;42.664;23.264;2023-12-22T02:35:36;28.80;;;14.88;;
77040;SDS011;65974;42.664;23.264;2023-12-22T02:38:03;30.65;;;15.25;;
77040;SDS011;65974;42.664;23.264;2023-12-22T02:40:31;28.00;;;12.02;;
77040;SDS011;65974;42.664;23.264;2023-12-22T02:42:58;11.48;;;7.90;;
77040;SDS011;65974;42.664;23.264;2023-12-22T02:45:25;44.28;;;15.18;;
77040;SDS011;65974;42.664;23.264;2023-12-22T02:47:51;25.67;;;14.60;;
77040;SDS011;65974;42.664;23.264;2023-12-22T02:50:16;27.48;;;13.82;;
77040;SDS011;65974;42.664;23.264;2023-12-22T02:52:43;28.35;;;13.00;;
77040;SDS011;65974;42.664;23.264;2023-12-22T02:55:09;28.70;;;13.63;;
77040;SDS011;65974;42.664;23.264;2023-12-22T02:57:34;35.75;;;15.43;;
77040;SDS011;65974;42.664;23.264;2023-12-22T03:00:01;30.50;;;10.75;;
77040;SDS011;65974;42.664;23.264;2023-12-22T03:02:27;25.80;;;12.85;;
77040;SDS011;65974;42.664;23.264;2023-12-22T03:04:52;33.10;;;14.90;;
77040;SDS011;65974;42.664;23.264;2023-12-22T03:07:18;23.20;;;9.07;;
77040;SDS011;65974;42.664;23.264;2023-12-22T03:09:43;39.65;;;19.73;;
77040;SDS011;65974;42.664;23.264;2023-12-22T03:12:09;21.50;;;10.60;;
77040;SDS011;65974;42.664;23.264;2023-12-22T03:14:36;25.55;;;12.80;;
77040;SDS011;65974;42.664;23.264;2023-12-22T03:17:02;35.63;;;14.23;;
77040;SDS011;65974;42.664;23.264;2023-12-22T03:19:29;28.13;;;13.50;;
77040;SDS011;65974;42.664;23.264;2023-12-22T03:21:55;36.90;;;15.32;;
77040;SDS011;65974;42.664;23.264;2023-12-22T03:24:21;17.85;;;10.30;;
77040;SDS011;65974;42.664;23.264;2023-12-22T03:26:49;32.20;;;14.07;;
77040;SDS011;65974;42.664;23.264;2023-12-22T03:29:16;25.30;;;12.50;;
77040;SDS011;65974;42.664;23.264;2023-12-22T03:31:43;32.80;;;14.57;;
77040;SDS011;65974;42.664;23.264;2023-12-22T03:34:09;33.83;;;15.18;;
77040;SDS011;65974;42.664;23.264;2023-12-22T03:36:35;28.88;;;11.98;;
77040;SDS011;65974;42.664;23.264;2023-12-22T03:39:00;14.68;;;8.60;;
77040;SDS011;65974;42.664;23.264;2023-12-22T03:41:27;25.88;;;14.57;;
77040;SDS011;65974;42.664;23.264;2023-12-22T03:43:54;26.83;;;13.85;;
77040;SDS011;65974;42.664;23.264;2023-12-22T03:46:20;27.58;;;13.88;;
77040;SDS011;65974;42.664;23.264;2023-12-22T03:48:45;28.60;;;12.02;;
77040;SDS011;65974;42.664;23.264;2023-12-22T03:51:11;23.33;;;11.98;;
77040;SDS011;65974;42.664;23.264;2023-12-22T03:53:38;31.85;;;15.57;;
77040;SDS011;65974;42.664;23.264;2023-12-22T03:56:03;21.38;;;10.88;;
77040;SDS011;65974;42.664;23.264;2023-12-22T03:58:29;26.00;;;12.23;;
77040;SDS011;65974;42.664;23.264;2023-12-22T04:00:55;30.35;;;14.25;;
77040;SDS011;65974;42.664;23.264;2023-12-22T04:03:21;22.40;;;8.48;;
77040;SDS011;65974;42.664;23.264;2023-12-22T04:05:47;30.75;;;15.80;;
77040;SDS011;65974;42.664;23.264;2023-12-22T04:08:12;24.00;;;12.00;;
77040;SDS011;65974;42.664;23.264;2023-12-22T04:10:38;37.60;;;16.08;;
77040;SDS011;65974;42.664;23.264;2023-12-22T04:13:03;34.22;;;17.50;;
77040;SDS011;65974;42.664;23.264;2023-12-22T04:15:29;16.83;;;9.25;;
77040;SDS011;65974;42.664;23.264;2023-12-22T04:17:54;28.25;;;15.18;;
77040;SDS011;65974;42.664;23.264;2023-12-22T04:20:20;32.15;;;11.98;;
77040;SDS011;65974;42.664;23.264;2023-12-22T04:22:46;19.55;;;13.07;;
77040;SDS011;65974;42.664;23.264;2023-12-22T04:25:11;21.38;;;9.80;;
77040;SDS011;65974;42.664;23.264;2023-12-22T04:27:37;32.47;;;12.85;;
77040;SDS011;65974;42.664;23.264;2023-12-22T04:30:02;19.08;;;10.05;;
77040;SDS011;65974;42.664;23.264;2023-12-22T04:32:28;31.42;;;15.35;;
77040;SDS011;65974;42.664;23.264;2023-12-22T04:34:53;29.95;;;15.60;;
77040;SDS011;65974;42.664;23.264;2023-12-22T04:37:19;20.55;;;11.70;;
77040;SDS011;65974;42.664;23.264;2023-12-22T04:39:44;28.45;;;15.50;;
77040;SDS011;65974;42.664;23.264;2023-12-22T04:42:10;20.83;;;13.77;;
77040;SDS011;65974;42.664;23.264;2023-12-22T04:44:35;27.48;;;14.80;;
77040;SDS011;65974;42.664;23.264;2023-12-22T04:47:01;18.08;;;11.80;;
77040;SDS011;65974;42.664;23.264;2023-12-22T04:49:26;17.95;;;10.23;;
77040;SDS011;65974;42.664;23.264;2023-12-22T04:51:52;25.58;;;12.95;;
77040;SDS011;65974;42.664;23.264;2023-12-22T04:54:17;29.40;;;15.38;;
77040;SDS011;65974;42.664;23.264;2023-12-22T04:56:43;18.27;;;11.57;;
77040;SDS011;65974;42.664;23.264;2023-12-22T04:59:08;25.25;;;13.75;;
77040;SDS011;65974;42.664;23.264;2023-12-22T05:01:34;19.23;;;9.77;;
77040;SDS011;65974;42.664;23.264;2023-12-22T05:04:00;23.52;;;13.73;;
77040;SDS011;65974;42.664;23.264;2023-12-22T05:06:26;32.08;;;13.63;;
77040;SDS011;65974;42.664;23.264;2023-12-22T05:08:55;16.30;;;11.50;;
77040;SDS011;65974;42.664;23.264;2023-12-22T05:11:21;18.35;;;10.35;;
77040;SDS011;65974;42.664;23.264;2023-12-22T05:13:47;28.17;;;12.02;;
77040;SDS011;65974;42.664;23.264;2023-12-22T05:16:13;26.33;;;12.93;;
77040;SDS011;65974;42.664;23.264;2023-12-22T05:18:39;20.58;;;13.10;;
77040;SDS011;65974;42.664;23.264;2023-12-22T05:21:05;25.73;;;12.15;;
77040;SDS011;65974;42.664;23.264;2023-12-22T05:23:31;21.35;;;10.23;;
77040;SDS011;65974;42.664;23.264;2023-12-22T05:25:57;19.90;;;10.75;;
77040;SDS011;65974;42.664;23.264;2023-12-22T05:28:23;28.20;;;13.80;;
77040;SDS011;65974;42.664;23.264;2023-12-22T05:30:48;28.15;;;10.07;;
77040;SDS011;65974;42.664;23.264;2023-12-22T05:33:15;45.97;;;26.50;;
77040;SDS011;65974;42.664;23.264;2023-12-22T05:35:40;22.60;;;13.57;;
77040;SDS011;65974;42.664;23.264;2023-12-22T05:38:06;22.88;;;12.25;;
77040;SDS011;65974;42.664;23.264;2023-12-22T05:40:31;28.73;;;14.18;;
77040;SDS011;65974;42.664;23.264;2023-12-22T05:42:57;10.60;;;8.93;;
77040;SDS011;65974;42.664;23.264;2023-12-22T05:45:24;14.75;;;8.63;;
77040;SDS011;65974;42.664;23.264;2023-12-22T05:47:50;19.63;;;10.43;;
77040;SDS011;65974;42.664;23.264;2023-12-22T05:50:16;16.98;;;10.00;;
77040;SDS011;65974;42.664;23.264;2023-12-22T05:52:42;21.38;;;12.38;;
77040;SDS011;65974;42.664;23.264;2023-12-22T05:55:10;26.17;;;10.93;;
77040;SDS011;65974;42.664;23.264;2023-12-22T05:57:36;13.38;;;9.43;;
77040;SDS011;65974;42.664;23.264;2023-12-22T06:00:02;9.57;;;5.80;;
77040;SDS011;65974;42.664;23.264;2023-12-22T06:02:32;14.55;;;7.78;;
77040;SDS011;65974;42.664;23.264;2023-12-22T06:04:58;15.70;;;10.63;;
77040;SDS011;65974;42.664;23.264;2023-12-22T06:07:23;16.00;;;7.45;;
77040;SDS011;65974;42.664;23.264;2023-12-22T06:09:49;18.13;;;10.68;;
77040;SDS011;65974;42.664;23.264;2023-12-22T06:12:14;11.23;;;7.65;;
77040;SDS011;65974;42.664;23.264;2023-12-22T06:14:40;17.48;;;10.48;;
77040;SDS011;65974;42.664;23.264;2023-12-22T06:17:06;27.75;;;14.13;;
77040;SDS011;65974;42.664;23.264;2023-12-22T06:19:31;23.85;;;12.60;;
77040;SDS011;65974;42.664;23.264;2023-12-22T06:21:57;16.05;;;9.70;;
77040;SDS011;65974;42.664;23.264;2023-12-22T06:24:25;17.80;;;7.15;;
77040;SDS011;65974;42.664;23.264;2023-12-22T06:29:18;12.35;;;9.07;;
77040;SDS011;65974;42.664;23.264;2023-12-22T06:31:43;13.77;;;8.32;;
77040;SDS011;65974;42.664;23.264;2023-12-22T06:34:09;10.23;;;8.18;;
77040;SDS011;65974;42.664;23.264;2023-12-22T06:36:34;24.90;;;12.93;;
77040;SDS011;65974;42.664;23.264;2023-12-22T06:39:00;15.60;;;9.35;;
77040;SDS011;65974;42.664;23.264;2023-12-22T06:41:29;16.73;;;8.07;;
77040;SDS011;65974;42.664;23.264;2023-12-22T06:43:56;15.30;;;9.10;;
77040;SDS011;65974;42.664;23.264;2023-12-22T06:48:54;16.02;;;8.57;;
77040;SDS011;65974;42.664;23.264;2023-12-22T06:53:47;12.18;;;8.77;;
77040;SDS011;65974;42.664;23.264;2023-12-22T06:56:20;16.27;;;10.75;;
77040;SDS011;65974;42.664;23.264;2023-12-22T06:58:47;17.10;;;6.95;;
77040;SDS011;65974;42.664;23.264;2023-12-22T07:01:17;25.38;;;10.75;;
77040;SDS011;65974;42.664;23.264;2023-12-22T07:03:45;10.43;;;6.30;;
77040;SDS011;65974;42.664;23.264;2023-12-22T07:06:11;13.75;;;9.50;;
77040;SDS011;65974;42.664;23.264;2023-12-22T07:08:38;19.17;;;11.20;;
77040;SDS011;65974;42.664;23.264;2023-12-22T07:11:04;13.25;;;9.10;;
77040;SDS011;65974;42.664;23.264;2023-12-22T07:13:29;13.27;;;9.05;;
77040;SDS011;65974;42.664;23.264;2023-12-22T07:15:55;17.88;;;9.57;;
77040;SDS011;65974;42.664;23.264;2023-12-22T07:18:20;13.90;;;8.77;;
77040;SDS011;65974;42.664;23.264;2023-12-22T07:20:45;13.15;;;9.85;;
77040;SDS011;65974;42.664;23.264;2023-12-22T07:23:11;15.05;;;9.50;;
77040;SDS011;65974;42.664;23.264;2023-12-22T07:25:37;15.82;;;10.73;;
77040;SDS011;65974;42.664;23.264;2023-12-22T07:28:05;15.25;;;9.65;;
77040;SDS011;65974;42.664;23.264;2023-12-22T07:30:31;14.55;;;8.48;;
77040;SDS011;65974;42.664;23.264;2023-12-22T07:32:58;15.07;;;9.02;;
77040;SDS011;65974;42.664;23.264;2023-12-22T07:35:23;17.45;;;9.85;;
77040;SDS011;65974;42.664;23.264;2023-12-22T07:37:49;26.70;;;12.07;;
77040;SDS011;65974;42.664;23.264;2023-12-22T07:40:15;15.20;;;8.50;;
77040;SDS011;65974;42.664;23.264;2023-12-22T07:42:40;22.02;;;11.98;;
77040;SDS011;65974;42.664;23.264;2023-12-22T07:45:06;22.27;;;10.63;;
77040;SDS011;65974;42.664;23.264;2023-12-22T07:47:34;19.27;;;12.18;;
77040;SDS011;65974;42.664;23.264;2023-12-22T07:52:26;12.35;;;8.70;;
77040;SDS011;65974;42.664;23.264;2023-12-22T07:54:52;20.40;;;11.18;;
77040;SDS011;65974;42.664;23.264;2023-12-22T07:57:17;15.23;;;7.65;;
77040;SDS011;65974;42.664;23.264;2023-12-22T07:59:43;18.05;;;8.77;;
77040;SDS011;65974;42.664;23.264;2023-12-22T08:02:09;12.85;;;8.02;;
77040;SDS011;65974;42.664;23.264;2023-12-22T08:04:34;10.88;;;7.05;;
77040;SDS011;65974;42.664;23.264;2023-12-22T08:07:00;19.40;;;11.43;;
77040;SDS011;65974;42.664;23.264;2023-12-22T08:09:25;25.63;;;13.65;;
77040;SDS011;65974;42.664;23.264;2023-12-22T08:11:51;17.38;;;10.70;;
77040;SDS011;65974;42.664;23.264;2023-12-22T08:14:21;17.38;;;10.38;;
77040;SDS011;65974;42.664;23.264;2023-12-22T08:16:47;14.50;;;9.88;;
77040;SDS011;65974;42.664;23.264;2023-12-22T08:19:13;18.77;;;10.70;;
77040;SDS011;65974;42.664;23.264;2023-12-22T08:21:38;21.63;;;10.38;;
77040;SDS011;65974;42.664;23.264;2023-12-22T08:24:04;21.05;;;12.02;;
77040;SDS011;65974;42.664;23.264;2023-12-22T08:26:29;12.02;;;8.50;;
77040;SDS011;65974;42.664;23.264;2023-12-22T08:28:55;15.75;;;10.15;;
77040;SDS011;65974;42.664;23.264;2023-12-22T08:31:22;25.48;;;11.88;;
77040;SDS011;65974;42.664;23.264;2023-12-22T08:33:49;16.80;;;12.20;;
77040;SDS011;65974;42.664;23.264;2023-12-22T08:36:18;17.23;;;9.65;;
77040;SDS011;65974;42.664;23.264;2023-12-22T08:38:43;12.02;;;8.90;;
77040;SDS011;65974;42.664;23.264;2023-12-22T08:41:08;12.32;;;8.68;;
77040;SDS011;65974;42.664;23.264;2023-12-22T08:43:37;25.65;;;14.07;;
77040;SDS011;65974;42.664;23.264;2023-12-22T08:46:03;26.33;;;14.63;;
77040;SDS011;65974;42.664;23.264;2023-12-22T08:48:29;35.65;;;18.52;;
77040;SDS011;65974;42.664;23.264;2023-12-22T08:51:00;37.47;;;19.55;;
77040;SDS011;65974;42.664;23.264;2023-12-22T08:53:26;36.53;;;17.38;;
77040;SDS011;65974;42.664;23.264;2023-12-22T08:55:56;36.97;;;18.77;;
77040;SDS011;65974;42.664;23.264;2023-12-22T08:58:21;22.42;;;14.45;;
77040;SDS011;65974;42.664;23.264;2023-12-22T09:00:47;33.88;;;18.25;;
77040;SDS011;65974;42.664;23.264;2023-12-22T09:03:13;28.85;;;15.02;;
77040;SDS011;65974;42.664;23.264;2023-12-22T09:05:38;28.15;;;15.48;;
77040;SDS011;65974;42.664;23.264;2023-12-22T09:08:05;26.63;;;14.73;;
77040;SDS011;65974;42.664;23.264;2023-12-22T09:10:31;27.92;;;15.70;;
77040;SDS011;65974;42.664;23.264;2023-12-22T09:12:57;21.35;;;14.30;;
77040;SDS011;65974;42.664;23.264;2023-12-22T09:15:23;23.05;;;13.75;;
77040;SDS011;65974;42.664;23.264;2023-12-22T09:17:48;29.65;;;16.30;;
77040;SDS011;65974;42.664;23.264;2023-12-22T09:20:14;25.77;;;15.55;;
77040;SDS011;65974;42.664;23.264;2023-12-22T09:22:40;27.63;;;14.75;;
77040;SDS011;65974;42.664;23.264;2023-12-22T09:25:05;26.75;;;14.73;;
77040;SDS011;65974;42.664;23.264;2023-12-22T09:27:31;25.67;;;16.45;;
77040;SDS011;65974;42.664;23.264;2023-12-22T09:29:57;22.92;;;16.25;;
77040;SDS011;65974;42.664;23.264;2023-12-22T09:32:22;29.23;;;15.23;;
77040;SDS011;65974;42.664;23.264;2023-12-22T09:34:48;25.20;;;14.38;;
77040;SDS011;65974;42.664;23.264;2023-12-22T09:37:13;28.05;;;18.45;;
77040;SDS011;65974;42.664;23.264;2023-12-22T09:39:39;25.58;;;15.82;;
77040;SDS011;65974;42.664;23.264;2023-12-22T09:42:05;28.17;;;15.45;;
77040;SDS011;65974;42.664;23.264;2023-12-22T09:44:31;23.70;;;14.93;;
77040;SDS011;65974;42.664;23.264;2023-12-22T09:47:01;20.67;;;10.90;;
77040;SDS011;65974;42.664;23.264;2023-12-22T09:49:29;14.02;;;6.70;;
77040;SDS011;65974;42.664;23.264;2023-12-22T09:51:56;4.18;;;2.20;;
77040;SDS011;65974;42.664;23.264;2023-12-22T09:54:23;6.57;;;3.42;;
77040;SDS011;65974;42.664;23.264;2023-12-22T09:56:51;4.70;;;2.55;;
77040;SDS011;65974;42.664;23.264;2023-12-22T09:59:17;6.35;;;3.08;;
77040;SDS011;65974;42.664;23.264;2023-12-22T10:01:44;3.70;;;2.72;;
77040;SDS011;65974;42.664;23.264;2023-12-22T10:04:13;5.70;;;3.33;;
77040;SDS011;65974;42.664;23.264;2023-12-22T10:06:39;6.20;;;3.75;;
77040;SDS011;65974;42.664;23.264;2023-12-22T10:09:06;6.30;;;5.43;;
77040;SDS011;65974;42.664;23.264;2023-12-22T10:11:34;5.68;;;3.30;;
77040;SDS011;65974;42.664;23.264;2023-12-22T10:14:04;5.65;;;3.58;;
77040;SDS011;65974;42.664;23.264;2023-12-22T10:16:31;6.97;;;4.57;;
77040;SDS011;65974;42.664;23.264;2023-12-22T10:18:56;5.18;;;4.15;;
77040;SDS011;65974;42.664;23.264;2023-12-22T10:21:31;5.07;;;2.35;;
77040;SDS011;65974;42.664;23.264;2023-12-22T10:23:57;5.32;;;3.80;;
77040;SDS011;65974;42.664;23.264;2023-12-22T10:26:22;5.80;;;3.63;;
77040;SDS011;65974;42.664;23.264;2023-12-22T10:28:49;5.30;;;4.03;;
77040;SDS011;65974;42.664;23.264;2023-12-22T10:31:15;7.10;;;3.80;;
77040;SDS011;65974;42.664;23.264;2023-12-22T10:33:43;4.97;;;2.97;;
77040;SDS011;65974;42.664;23.264;2023-12-22T10:36:09;5.15;;;3.45;;
77040;SDS011;65974;42.664;23.264;2023-12-22T10:38:35;4.93;;;4.10;;
77040;SDS011;65974;42.664;23.264;2023-12-22T10:41:04;5.43;;;3.90;;
77040;SDS011;65974;42.664;23.264;2023-12-22T10:43:36;5.07;;;3.22;;
77040;SDS011;65974;42.664;23.264;2023-12-22T10:46:05;3.88;;;2.85;;
77040;SDS011;65974;42.664;23.264;2023-12-22T10:48:33;3.65;;;2.50;;
77040;SDS011;65974;42.664;23.264;2023-12-22T10:51:00;5.47;;;2.40;;
77040;SDS011;65974;42.664;23.264;2023-12-22T10:53:26;3.00;;;2.28;;
77040;SDS011;65974;42.664;23.264;2023-12-22T10:55:52;2.92;;;2.35;;
77040;SDS011;65974;42.664;23.264;2023-12-22T10:58:18;4.78;;;2.58;;
77040;SDS011;65974;42.664;23.264;2023-12-22T11:00:47;4.80;;;2.90;;
77040;SDS011;65974;42.664;23.264;2023-12-22T11:03:16;4.55;;;2.40;;
77040;SDS011;65974;42.664;23.264;2023-12-22T11:05:45;4.25;;;1.85;;
77040;SDS011;65974;42.664;23.264;2023-12-22T11:08:13;6.05;;;3.20;;
77040;SDS011;65974;42.664;23.264;2023-12-22T11:10:41;6.30;;;3.92;;
77040;SDS011;65974;42.664;23.264;2023-12-22T11:13:12;2.40;;;1.85;;
77040;SDS011;65974;42.664;23.264;2023-12-22T11:15:38;1.98;;;1.42;;
77040;SDS011;65974;42.664;23.264;2023-12-22T11:18:05;3.70;;;2.42;;
77040;SDS011;65974;42.664;23.264;2023-12-22T11:20:35;2.50;;;2.05;;
77040;SDS011;65974;42.664;23.264;2023-12-22T11:23:02;4.28;;;2.70;;
77040;SDS011;65974;42.664;23.264;2023-12-22T11:25:30;4.13;;;2.25;;
77040;SDS011;65974;42.664;23.264;2023-12-22T11:27:58;2.88;;;2.22;;
77040;SDS011;65974;42.664;23.264;2023-12-22T11:30:24;2.97;;;2.47;;
77040;SDS011;65974;42.664;23.264;2023-12-22T11:32:51;4.32;;;2.50;;
77040;SDS011;65974;42.664;23.264;2023-12-22T11:35:18;4.15;;;3.80;;
77040;SDS011;65974;42.664;23.264;2023-12-22T11:37:48;5.82;;;2.50;;
77040;SDS011;65974;42.664;23.264;2023-12-22T11:40:14;3.30;;;2.42;;
77040;SDS011;65974;42.664;23.264;2023-12-22T11:42:41;5.28;;;3.80;;
77040;SDS011;65974;42.664;23.264;2023-12-22T11:45:10;5.55;;;4.03;;
77040;SDS011;65974;42.664;23.264;2023-12-22T11:47:41;5.72;;;2.88;;
77040;SDS011;65974;42.664;23.264;2023-12-22T11:50:10;3.28;;;1.88;;
77040;SDS011;65974;42.664;23.264;2023-12-22T11:52:37;3.60;;;2.50;;
77040;SDS011;65974;42.664;23.264;2023-12-22T11:55:04;7.10;;;2.83;;
77040;SDS011;65974;42.664;23.264;2023-12-22T11:57:35;6.10;;;3.70;;
77040;SDS011;65974;42.664;23.264;2023-12-22T12:00:03;3.00;;;2.70;;
77040;SDS011;65974;42.664;23.264;2023-12-22T12:02:32;3.53;;;2.40;;
77040;SDS011;65974;42.664;23.264;2023-12-22T12:05:02;2.60;;;2.00;;
77040;SDS011;65974;42.664;23.264;2023-12-22T12:07:47;5.38;;;2.83;;
77040;SDS011;65974;42.664;23.264;2023-12-22T12:13:05;2.10;;;1.30;;
77040;SDS011;65974;42.664;23.264;2023-12-22T12:15:31;5.07;;;3.15;;
77040;SDS011;65974;42.664;23.264;2023-12-22T12:17:58;4.50;;;2.55;;
77040;SDS011;65974;42.664;23.264;2023-12-22T12:20:25;3.70;;;2.50;;
77040;SDS011;65974;42.664;23.264;2023-12-22T12:22:52;4.78;;;2.75;;
77040;SDS011;65974;42.664;23.264;2023-12-22T12:25:18;2.88;;;2.25;;
77040;SDS011;65974;42.664;23.264;2023-12-22T12:27:49;2.67;;;1.80;;
77040;SDS011;65974;42.664;23.264;2023-12-22T12:30:25;2.72;;;2.00;;
77040;SDS011;65974;42.664;23.264;2023-12-22T12:32:52;2.90;;;1.60;;
77040;SDS011;65974;42.664;23.264;2023-12-22T12:35:19;3.03;;;2.05;;
77040;SDS011;65974;42.664;23.264;2023-12-22T12:37:44;3.28;;;2.30;;
77040;SDS011;65974;42.664;23.264;2023-12-22T12:40:14;4.38;;;2.38;;
77040;SDS011;65974;42.664;23.264;2023-12-22T12:42:48;3.70;;;2.30;;
77040;SDS011;65974;42.664;23.264;2023-12-22T12:45:15;4.60;;;3.03;;
77040;SDS011;65974;42.664;23.264;2023-12-22T12:47:40;2.72;;;1.70;;
77040;SDS011;65974;42.664;23.264;2023-12-22T12:50:06;2.33;;;2.10;;
77040;SDS011;65974;42.664;23.264;2023-12-22T12:52:33;4.50;;;2.05;;
77040;SDS011;65974;42.664;23.264;2023-12-22T12:54:59;3.58;;;2.03;;
77040;SDS011;65974;42.664;23.264;2023-12-22T12:57:25;5.20;;;2.88;;
77040;SDS011;65974;42.664;23.264;2023-12-22T12:59:51;3.35;;;1.95;;
77040;SDS011;65974;42.664;23.264;2023-12-22T13:02:18;3.78;;;2.78;;
77040;SDS011;65974;42.664;23.264;2023-12-22T13:04:45;4.93;;;2.78;;
77040;SDS011;65974;42.664;23.264;2023-12-22T13:07:11;3.38;;;2.00;;
77040;SDS011;65974;42.664;23.264;2023-12-22T13:09:40;6.10;;;3.85;;
77040;SDS011;65974;42.664;23.264;2023-12-22T13:12:07;3.67;;;2.90;;
77040;SDS011;65974;42.664;23.264;2023-12-22T13:14:33;4.70;;;3.95;;
77040;SDS011;65974;42.664;23.264;2023-12-22T13:16:59;6.55;;;2.78;;
77040;SDS011;65974;42.664;23.264;2023-12-22T13:19:25;4.40;;;2.75;;
77040;SDS011;65974;42.664;23.264;2023-12-22T13:21:51;8.50;;;4.18;;
77040;SDS011;65974;42.664;23.264;2023-12-22T13:24:18;5.47;;;2.97;;
77040;SDS011;65974;42.664;23.264;2023-12-22T13:26:44;4.38;;;2.33;;
77040;SDS011;65974;42.664;23.264;2023-12-22T13:29:10;5.18;;;3.33;;
77040;SDS011;65974;42.664;23.264;2023-12-22T13:31:37;4.25;;;2.78;;
77040;SDS011;65974;42.664;23.264;2023-12-22T13:34:12;5.88;;;2.55;;
77040;SDS011;65974;42.664;23.264;2023-12-22T13:36:38;6.25;;;2.72;;
77040;SDS011;65974;42.664;23.264;2023-12-22T13:39:05;4.55;;;2.75;;
77040;SDS011;65974;42.664;23.264;2023-12-22T13:41:34;4.38;;;2.42;;
77040;SDS011;65974;42.664;23.264;2023-12-22T13:44:05;3.95;;;3.25;;
77040;SDS011;65974;42.664;23.264;2023-12-22T13:46:32;2.95;;;2.08;;
77040;SDS011;65974;42.664;23.264;2023-12-22T13:49:03;5.63;;;3.95;;
77040;SDS011;65974;42.664;23.264;2023-12-22T13:51:41;5.43;;;3.28;;
77040;SDS011;65974;42.664;23.264;2023-12-22T13:54:07;15.00;;;7.25;;
77040;SDS011;65974;42.664;23.264;2023-12-22T13:56:34;5.00;;;3.78;;
77040;SDS011;65974;42.664;23.264;2023-12-22T13:59:00;4.88;;;2.75;;
77040;SDS011;65974;42.664;23.264;2023-12-22T14:01:26;3.67;;;2.80;;
77040;SDS011;65974;42.664;23.264;2023-12-22T14:03:52;5.50;;;3.03;;
77040;SDS011;65974;42.664;23.264;2023-12-22T14:06:18;25.40;;;9.27;;
77040;SDS011;65974;42.664;23.264;2023-12-22T14:08:45;5.15;;;3.15;;
77040;SDS011;65974;42.664;23.264;2023-12-22T14:11:10;4.47;;;3.65;;
77040;SDS011;65974;42.664;23.264;2023-12-22T14:13:36;4.07;;;2.33;;
77040;SDS011;65974;42.664;23.264;2023-12-22T14:16:06;3.22;;;2.85;;
77040;SDS011;65974;42.664;23.264;2023-12-22T14:18:31;4.88;;;3.45;;
77040;SDS011;65974;42.664;23.264;2023-12-22T14:20:59;5.47;;;2.65;;
77040;SDS011;65974;42.664;23.264;2023-12-22T14:23:25;5.18;;;3.85;;
77040;SDS011;65974;42.664;23.264;2023-12-22T14:25:51;5.07;;;3.88;;
77040;SDS011;65974;42.664;23.264;2023-12-22T14:28:17;4.88;;;2.47;;
77040;SDS011;65974;42.664;23.264;2023-12-22T14:30:44;3.75;;;2.28;;